Time;durP1;ratioP1;P1;durP2;ratioP2;P2;SDS_P1;SDS_P2;PMS_P1;PMS_P2;Temp;Humidity;BMP_temperature;BMP_pressure;BME280_temperature;BME280_humidity;BME280_pressure;Samples;Min_cycle;Max_cycle;Signal;HPM_P1;HPM_P2
2021/04/29 00:00:51;;;;;;;7.30;5.15;;;;;;;3.30;67.46;100877.08;1768708;80;21185;-70
2021/04/29 00:03:19;;;;;;;8.18;5.20;;;;;;;3.25;67.60;100867.62;1783355;79;22288;-70
2021/04/29 00:05:47;;;;;;;11.05;5.60;;;;;;;3.24;67.64;100873.41;1778867;80;21222;-69
2021/04/29 00:08:15;;;;;;;7.78;5.40;;;;;;;3.25;67.66;100874.22;1780043;78;21182;-70
2021/04/29 00:10:43;;;;;;;8.88;5.53;;;;;;;3.24;67.63;100877.87;1764819;80;21195;-70
2021/04/29 00:13:11;;;;;;;7.72;5.62;;;;;;;3.22;67.65;100870.66;1773140;80;21252;-69
2021/04/29 00:15:41;;;;;;;7.78;5.40;;;;;;;3.20;67.66;100873.52;1779281;80;21666;-70
2021/04/29 00:18:09;;;;;;;11.18;5.78;;;;;;;3.17;67.76;100874.42;1764148;79;21646;-70
2021/04/29 00:20:38;;;;;;;10.03;5.90;;;;;;;3.13;67.88;100872.69;1769802;79;21186;-70
2021/04/29 00:23:06;;;;;;;8.85;5.72;;;;;;;3.09;68.01;100872.76;1773833;79;21219;-70
2021/04/29 00:25:34;;;;;;;8.38;5.45;;;;;;;3.07;68.15;100866.89;1774863;80;22202;-70
2021/04/29 00:28:02;;;;;;;8.30;5.50;;;;;;;3.07;68.25;100864.25;1776909;79;21208;-70
2021/04/29 00:30:30;;;;;;;8.85;5.90;;;;;;;3.06;68.32;100867.91;1767900;80;21215;-70
2021/04/29 00:32:58;;;;;;;8.20;5.75;;;;;;;3.05;68.42;100868.91;1721632;81;21214;-70
2021/04/29 00:35:26;;;;;;;8.70;5.78;;;;;;;3.03;68.52;100867.80;1732573;81;21187;-70
2021/04/29 00:37:56;;;;;;;8.75;6.15;;;;;;;3.01;68.62;100873.77;1727041;81;21167;-70
2021/04/29 00:40:24;;;;;;;7.75;5.33;;;;;;;2.99;68.74;100868.38;1732222;81;22306;-70
2021/04/29 00:42:52;;;;;;;9.33;6.25;;;;;;;2.97;68.88;100873.06;1728982;81;21159;-70
2021/04/29 00:45:20;;;;;;;8.98;5.40;;;;;;;2.95;69.03;100875.88;1729652;81;21619;-70
2021/04/29 00:47:51;;;;;;;8.45;5.80;;;;;;;2.95;69.17;100865.83;1727092;81;21159;-69
2021/04/29 00:50:23;;;;;;;8.35;4.70;;;;;;;2.92;69.30;100870.99;1730319;81;21183;-70
2021/04/29 00:52:52;;;;;;;9.88;5.72;;;;;;;2.92;69.42;100867.55;1730858;81;22133;-69
2021/04/29 00:55:20;;;;;;;8.95;5.90;;;;;;;2.90;69.58;100860.36;1734264;80;21206;-69
2021/04/29 00:57:47;;;;;;;7.95;5.53;;;;;;;2.87;69.71;100860.75;1729162;81;21603;-69
2021/04/29 01:00:16;;;;;;;10.03;5.90;;;;;;;2.82;69.85;100861.33;1729988;81;21179;-70
2021/04/29 01:02:56;;;;;;;9.40;5.42;;;;;;;2.80;69.93;100858.91;1732296;81;21203;-70
2021/04/29 01:05:29;;;;;;;8.20;6.00;;;;;;;2.78;70.06;100864.06;1717748;81;21492;-70
2021/04/29 01:07:59;;;;;;;;;;;;;;;2.74;70.26;100861.52;1727831;81;21246;-70
2021/04/29 01:10:39;;;;;;;9.20;5.75;;;;;;;2.72;70.42;100859.57;1734831;81;20281;-70
2021/04/29 01:13:17;;;;;;;8.35;5.95;;;;;;;2.69;70.62;100863.41;1737365;82;21215;-70
2021/04/29 01:15:46;;;;;;;9.38;5.87;;;;;;;2.68;70.78;100858.34;1729773;81;21207;-70
2021/04/29 01:18:15;;;;;;;7.55;6.00;;;;;;;2.66;70.97;100859.84;1729983;82;22394;-69
2021/04/29 01:21:03;;;;;;;8.55;5.62;;;;;;;2.65;71.09;100859.55;1728946;81;21282;-69
2021/04/29 01:23:52;;;;;;;9.08;5.83;;;;;;;2.64;71.20;100857.93;1723456;82;21818;-69
2021/04/29 01:26:37;;;;;;;9.23;5.90;;;;;;;2.62;71.31;100859.13;1735066;82;21670;-68
2021/04/29 01:29:10;;;;;;;9.98;5.87;;;;;;;2.59;71.48;100851.10;1732928;81;21256;-70
2021/04/29 01:31:41;;;;;;;8.00;5.47;;;;;;;2.56;71.62;100854.13;1733954;81;21231;-71
2021/04/29 01:34:13;;;;;;;8.55;5.53;;;;;;;2.55;71.82;100855.15;1727432;82;21447;-69
2021/04/29 01:36:41;;;;;;;10.03;6.08;;;;;;;2.51;72.23;100853.41;1723440;81;21623;-70
2021/04/29 01:39:10;;;;;;;9.65;5.60;;;;;;;2.51;72.23;100853.41;1730331;81;21185;-69
2021/04/29 01:41:40;;;;;;;10.28;5.97;;;;;;;2.51;72.24;100861.32;1772091;79;21206;-69
2021/04/29 01:44:09;;;;;;;7.58;4.97;;;;;;;2.48;72.37;100860.39;1758479;80;21187;-69
2021/04/29 01:46:37;;;;;;;10.15;5.70;;;;;;;2.47;72.46;100863.20;1765997;79;21518;-70
2021/04/29 01:49:06;;;;;;;7.87;5.30;;;;;;;2.46;72.58;100862.91;1758387;79;21236;-69
2021/04/29 01:51:33;;;;;;;8.68;5.50;;;;;;;2.44;72.70;100863.63;1773834;79;21195;-70
2021/04/29 01:54:01;;;;;;;8.78;5.70;;;;;;;2.43;72.81;100867.25;1773660;79;21170;-71
2021/04/29 01:56:29;;;;;;;8.65;5.85;;;;;;;2.41;72.95;100861.38;1774294;79;22305;-70
2021/04/29 01:58:58;;;;;;;8.53;6.08;;;;;;;2.40;73.04;100863.18;1770283;80;21202;-70
2021/04/29 02:01:28;;;;;;;8.20;5.70;;;;;;;2.39;73.16;100866.03;1740340;80;21198;-70
2021/04/29 02:03:56;;;;;;;8.85;6.35;;;;;;;2.37;73.28;100870.19;1768316;79;21527;-70
2021/04/29 02:06:24;;;;;;;9.98;5.80;;;;;;;2.36;73.42;100867.22;1773150;80;21209;-70
2021/04/29 02:08:52;;;;;;;10.45;6.30;;;;;;;2.33;73.60;100863.66;1771617;80;21218;-70
2021/04/29 02:11:20;;;;;;;10.32;6.15;;;;;;;2.33;73.78;100871.56;1775936;79;21607;-69
2021/04/29 02:13:49;;;;;;;8.60;6.17;;;;;;;2.33;73.94;100875.01;1769439;80;21159;-69
2021/04/29 02:16:37;;;;;;;8.43;6.28;;;;;;;2.32;74.11;100866.80;1774730;80;21686;-70
2021/04/29 02:19:06;;;;;;;9.15;6.12;;;;;;;2.33;74.17;100867.61;1752036;80;21229;-69
2021/04/29 02:21:34;;;;;;;8.28;6.00;;;;;;;2.32;74.29;100866.80;1769630;79;22254;-69
2021/04/29 02:24:03;;;;;;;8.88;6.00;;;;;;;2.32;74.35;100868.12;1772390;79;21177;-70
2021/04/29 02:26:30;;;;;;;8.80;6.40;;;;;;;2.30;74.48;100874.11;1774825;79;21255;-69
2021/04/29 02:28:58;;;;;;;8.83;5.78;;;;;;;2.30;74.55;100874.11;1750596;80;22218;-69
2021/04/29 02:31:26;;;;;;;9.40;5.83;;;;;;;2.32;74.67;100879.98;1765088;79;21159;-70
2021/04/29 02:33:54;;;;;;;9.18;5.60;;;;;;;2.33;74.78;100874.20;1766016;79;21309;-69
2021/04/29 02:36:24;;;;;;;10.40;6.33;;;;;;;2.34;74.85;100869.26;1768225;79;21183;-69
2021/04/29 02:38:53;;;;;;;10.10;6.80;;;;;;;2.34;74.88;100875.34;1767620;80;21186;-69
2021/04/29 02:41:22;;;;;;;8.80;5.97;;;;;;;2.36;74.97;100881.72;1777183;79;21663;-70
2021/04/29 02:43:50;;;;;;;11.35;6.37;;;;;;;2.37;75.07;100882.05;1772019;80;21643;-70
2021/04/29 02:46:19;;;;;;;8.80;6.37;;;;;;;2.38;75.12;100878.91;1772264;79;21444;-69
2021/04/29 02:48:48;;;;;;;8.68;5.75;;;;;;;2.38;75.18;100872.31;1768012;80;21261;-70
2021/04/29 02:51:18;;;;;;;11.57;5.92;;;;;;;2.39;75.26;100871.30;1769181;79;21195;-70
2021/04/29 02:53:47;;;;;;;9.15;6.70;;;;;;;2.40;75.33;100872.41;1769172;80;21183;-69
2021/04/29 02:56:15;;;;;;;11.33;7.20;;;;;;;2.42;75.40;100870.91;1772206;80;21195;-71
2021/04/29 02:58:45;;;;;;;8.53;5.80;;;;;;;2.44;75.46;100875.49;1767637;80;22176;-69
2021/04/29 03:01:14;;;;;;;9.80;6.65;;;;;;;2.46;75.51;100873.45;1765273;79;21435;-71
2021/04/29 03:03:42;;;;;;;10.38;6.25;;;;;;;2.48;75.54;100870.94;1771617;79;21160;-70
2021/04/29 03:06:11;;;;;;;9.23;6.45;;;;;;;2.53;75.57;100878.25;1774904;80;21195;-70
2021/04/29 03:08:39;;;;;;;8.08;6.25;;;;;;;2.55;75.61;100875.73;1760076;80;21884;-70
2021/04/29 03:11:07;;;;;;;8.70;6.25;;;;;;;2.59;75.65;100874.33;1759921;79;21368;-70
2021/04/29 03:13:36;;;;;;;8.45;6.22;;;;;;;2.64;75.68;100877.71;1774020;80;21179;-69
2021/04/29 03:16:05;;;;;;;9.03;6.03;;;;;;;2.68;75.68;100870.22;1770347;80;21187;-70
2021/04/29 03:18:33;;;;;;;9.70;6.78;;;;;;;2.71;75.70;100872.46;1759908;80;21209;-70
2021/04/29 03:21:01;;;;;;;9.68;6.53;;;;;;;2.74;75.68;100875.52;1768706;80;21714;-70
2021/04/29 03:23:29;;;;;;;9.73;6.62;;;;;;;2.78;75.69;100878.56;1768689;79;21362;-69
2021/04/29 03:26:25;;;;;;;7.80;5.80;;;;;;;2.80;75.69;100876.05;1779032;80;21174;-70
2021/04/29 03:29:30;;;;;;;9.28;6.12;;;;;;;2.85;75.72;100876.77;1775442;80;21183;-69
2021/04/29 03:32:23;;;;;;;8.50;5.70;;;;;;;2.93;75.80;100883.20;1755869;79;21238;-70
2021/04/29 03:34:51;;;;;;;9.85;6.58;;;;;;;2.97;75.88;100881.78;1769093;79;21215;-70
2021/04/29 03:37:19;;;;;;;9.00;6.15;;;;;;;3.04;75.95;100886.56;1763425;79;22099;-70
2021/04/29 03:39:47;;;;;;;8.68;5.80;;;;;;;3.13;75.96;100887.72;1753268;80;21186;-70
2021/04/29 03:42:16;;;;;;;9.05;5.97;;;;;;;3.22;75.95;100892.58;1774451;80;21231;-71
2021/04/29 03:44:44;;;;;;;9.13;6.35;;;;;;;3.32;75.96;100886.11;1764434;79;21048;-70
2021/04/29 03:48:53;;;;;;;8.55;6.22;;;;;;;3.41;75.96;100883.08;1764254;80;21182;-70
2021/04/29 03:51:48;;;;;;;8.75;6.35;;;;;;;3.59;76.02;100883.02;1773458;79;21209;-70
2021/04/29 03:54:47;;;;;;;9.05;6.37;;;;;;;3.82;76.08;100883.89;1771117;80;21222;-70
2021/04/29 03:57:14;;;;;;;10.23;7.00;;;;;;;4.04;76.05;100882.66;1771376;79;21206;-70
2021/04/29 03:59:42;;;;;;;9.35;7.08;;;;;;;4.28;75.94;100880.38;1776144;79;21675;-70
2021/04/29 04:02:13;;;;;;;8.53;6.22;;;;;;;4.48;75.76;100872.41;1767804;79;21240;-70
2021/04/29 04:05:15;;;;;;;6.67;5.12;;;;;;;4.67;75.52;100885.56;1769983;80;21210;-71
2021/04/29 04:08:22;;;;;;;9.78;6.28;;;;;;;4.83;75.30;100881.60;1777442;79;21167;-70
2021/04/29 04:10:53;;;;;;;7.42;5.97;;;;;;;5.02;75.04;100885.70;1776487;80;21139;-71
2021/04/29 04:18:00;;;;;;;8.65;5.95;;;;;;;5.27;74.41;100874.66;1739179;80;21687;-69
2021/04/29 04:20:28;;;;;;;9.15;6.20;;;;;;;5.36;73.68;100869.89;1735604;82;22694;-70
2021/04/29 04:22:56;;;;;;;10.23;6.78;;;;;;;5.37;73.38;100870.21;1733837;81;21704;-68
2021/04/29 04:25:24;;;;;;;9.20;6.20;;;;;;;5.39;73.22;100868.95;1731026;81;21254;-70
2021/04/29 04:28:29;;;;;;;11.08;6.58;;;;;;;5.48;73.15;100874.80;1735069;81;21657;-72
2021/04/29 04:30:59;;;;;;;9.83;6.62;;;;;;;5.61;73.12;100872.05;1720506;81;21199;-71
2021/04/29 04:33:26;;;;;;;9.30;6.20;;;;;;;5.80;73.07;100873.44;1736393;82;21706;-70
2021/04/29 04:35:54;;;;;;;10.20;6.92;;;;;;;5.97;72.93;100876.38;1730167;81;21267;-70
2021/04/29 04:38:22;;;;;;;10.43;6.55;;;;;;;6.12;72.54;100876.84;1731673;81;21196;-70
2021/04/29 04:40:50;;;;;;;9.65;6.25;;;;;;;6.29;72.09;100875.75;1728922;81;21223;-70
2021/04/29 04:43:18;;;;;;;9.78;6.28;;;;;;;6.47;71.67;100874.93;1735685;81;21183;-69
2021/04/29 04:45:47;;;;;;;9.98;6.53;;;;;;;6.64;71.10;100873.28;1735633;81;21880;-71
2021/04/29 04:48:15;;;;;;;8.05;6.12;;;;;;;6.84;70.44;100873.03;1733961;81;21239;-70
2021/04/29 04:52:20;;;;;;;9.08;6.50;;;;;;;7.02;69.87;100870.35;1735056;81;21224;-71
2021/04/29 04:54:49;;;;;;;8.15;6.30;;;;;;;7.26;69.10;100879.72;1732639;81;21599;-69
2021/04/29 05:01:45;;;;;;;7.60;5.83;;;;;;;7.49;67.28;100874.98;1735969;81;21144;-70
2021/04/29 05:04:13;;;;;;;8.75;6.33;;;;;;;7.59;66.76;100877.88;1737996;81;21743;-70
2021/04/29 05:07:06;;;;;;;8.98;6.50;;;;;;;7.67;66.35;100882.88;1736945;81;21567;-70
2021/04/29 05:10:05;;;;;;;9.10;6.62;;;;;;;7.74;66.12;100880.92;1729264;81;21124;-70
2021/04/29 05:12:46;;;;;;;9.20;6.30;;;;;;;7.82;66.05;100879.76;1733488;81;21148;-70
2021/04/29 05:15:15;;;;;;;9.05;6.22;;;;;;;7.88;65.67;100881.50;1731385;81;21864;-70
2021/04/29 05:17:42;;;;;;;7.47;5.17;;;;;;;7.89;65.47;100879.64;1736739;81;21190;-71
2021/04/29 05:20:12;;;;;;;8.38;5.87;;;;;;;7.93;65.39;100881.63;1727297;81;21231;-69
2021/04/29 05:22:52;;;;;;;7.70;5.87;;;;;;;7.95;65.14;100878.73;1726548;81;21673;-70
2021/04/29 05:25:22;;;;;;;7.33;5.20;;;;;;;8.02;65.02;100878.08;1731073;81;21203;-70
2021/04/29 05:27:51;;;;;;;7.35;5.62;;;;;;;8.11;64.90;100880.69;1729247;81;22305;-71
2021/04/29 05:43:52;;;;;;;6.47;5.30;;;;;;;8.67;63.95;100880.56;1735426;81;21640;-70
2021/04/29 05:46:50;;;;;;;7.53;5.28;;;;;;;8.92;63.49;100878.92;1734508;82;22168;-70
2021/04/29 05:49:42;;;;;;;8.33;5.65;;;;;;;9.03;63.24;100871.92;1733309;81;21191;-70
2021/04/29 06:01:47;;;;;;;8.48;6.45;;;;;;;9.53;62.26;100875.17;1715617;81;21239;-70
2021/04/29 06:04:48;;;;;;;7.95;6.25;;;;;;;9.77;61.47;100878.51;1725264;82;21393;-70
2021/04/29 06:07:18;;;;;;;9.28;6.58;;;;;;;9.94;60.99;100871.02;1733626;81;21223;-71
2021/04/29 06:10:05;;;;;;;8.90;6.00;;;;;;;10.14;60.63;100870.49;1731374;82;21583;-71
2021/04/29 06:12:33;;;;;;;9.48;6.87;;;;;;;10.36;60.44;100867.33;1710163;82;21672;-70
2021/04/29 06:15:02;;;;;;;9.28;6.80;;;;;;;10.57;59.98;100865.73;1778609;80;21174;-70
2021/04/29 06:17:30;;;;;;;8.38;6.45;;;;;;;10.75;59.27;100867.27;1770992;80;21456;-70
2021/04/29 06:19:59;;;;;;;10.30;6.80;;;;;;;10.86;58.85;100863.66;1741453;80;21203;-71
2021/04/29 06:22:27;;;;;;;8.60;6.35;;;;;;;10.98;58.38;100860.29;1762850;80;21202;-71
2021/04/29 06:24:55;;;;;;;8.38;6.50;;;;;;;11.14;57.27;100862.59;1782445;78;21665;-71
2021/04/29 06:27:23;;;;;;;9.68;6.97;;;;;;;11.28;56.38;100866.45;1773021;79;21154;-70
2021/04/29 06:29:50;;;;;;;8.60;6.35;;;;;;;11.43;55.74;100868.47;1783980;80;21377;-71
2021/04/29 06:32:18;;;;;;;8.30;6.78;;;;;;;11.58;55.21;100864.30;1778782;80;21187;-70
2021/04/29 06:34:47;;;;;;;8.88;6.72;;;;;;;11.73;54.71;100868.44;1781221;78;21665;-70
2021/04/29 06:37:15;;;;;;;9.38;6.78;;;;;;;11.90;54.46;100866.97;1783222;80;21657;-70
2021/04/29 06:39:46;;;;;;;7.87;6.05;;;;;;;12.09;54.10;100862.81;1764661;79;21197;-70
2021/04/29 06:42:14;;;;;;;7.90;5.67;;;;;;;12.32;53.46;100870.16;1763834;78;21166;-71
2021/04/29 06:44:42;;;;;;;8.60;6.40;;;;;;;12.51;52.89;100867.84;1771258;78;22003;-70
2021/04/29 06:47:10;;;;;;;6.73;5.50;;;;;;;12.63;52.29;100875.90;1784811;80;22187;-70
2021/04/29 06:49:40;;;;;;;8.00;5.60;;;;;;;12.77;51.43;100878.92;1780014;79;21431;-70
2021/04/29 06:52:07;;;;;;;9.00;5.50;;;;;;;12.85;50.70;100880.27;1765688;78;21405;-70
2021/04/29 06:54:35;;;;;;;7.60;5.40;;;;;;;12.94;50.08;100879.23;1771689;80;21494;-70
2021/04/29 06:57:05;;;;;;;6.50;5.13;;;;;;;13.03;49.41;100873.09;1778589;80;21332;-71
2021/04/29 06:59:34;;;;;;;7.53;5.60;;;;;;;13.14;49.22;100869.88;1763317;79;22016;-70
2021/04/29 07:02:02;;;;;;;7.13;5.70;;;;;;;13.26;49.06;100871.81;1777293;78;21463;-70
2021/04/29 07:04:32;;;;;;;6.60;5.10;;;;;;;13.35;48.78;100871.53;1770679;80;21474;-71
2021/04/29 07:07:00;;;;;;;6.17;4.87;;;;;;;13.46;48.60;100866.99;1769111;80;22251;-71
2021/04/29 07:09:29;;;;;;;6.93;5.47;;;;;;;13.60;48.65;100863.23;1773393;79;21468;-71
2021/04/29 07:11:59;;;;;;;7.20;5.90;;;;;;;13.73;48.02;100866.70;1775684;79;21404;-71
2021/04/29 07:14:28;;;;;;;7.60;5.37;;;;;;;13.78;47.48;100862.66;1777647;80;21416;-72
2021/04/29 07:16:56;;;;;;;6.93;5.80;;;;;;;13.77;47.28;100863.73;1780340;80;21477;-71
2021/04/29 07:19:25;;;;;;;7.30;5.70;;;;;;;13.76;47.36;100872.08;1778239;80;21402;-71
2021/04/29 07:21:53;;;;;;;7.83;6.03;;;;;;;13.72;47.27;100863.77;1779483;79;21341;-73
2021/04/29 07:24:21;;;;;;;8.20;6.20;;;;;;;13.68;47.19;100855.96;1773112;78;21441;-71
2021/04/29 07:39:25;;;;;;;7.27;5.93;;;;;;;14.66;45.30;100847.91;1725139;81;23483;-74
2021/04/29 07:41:59;;;;;;;7.40;5.00;;;;;;;14.69;45.06;100846.00;1841256;77;22749;-74
2021/04/29 07:44:28;;;;;;;6.83;5.30;;;;;;;14.63;44.42;100847.66;1752954;79;21725;-75
2021/04/29 07:46:56;;;;;;;6.50;5.00;;;;;;;14.63;43.72;100840.39;1793554;78;22076;-74
2021/04/29 07:49:24;;;;;;;5.93;4.30;;;;;;;14.62;44.19;100841.48;1796712;79;21529;-76
2021/04/29 07:51:52;;;;;;;6.63;4.67;;;;;;;14.68;44.16;100836.89;1800617;79;21560;-75
2021/04/29 07:54:20;;;;;;;5.70;4.27;;;;;;;14.71;43.61;100834.45;1804203;79;21522;-74
2021/04/29 07:56:48;;;;;;;7.90;5.10;;;;;;;14.80;44.38;100829.27;1794773;78;21893;-77
2021/04/29 07:59:16;;;;;;;7.10;5.07;;;;;;;14.84;43.33;100839.75;1808273;77;21471;-74
2021/04/29 08:01:46;;;;;;;7.23;5.37;;;;;;;14.80;42.96;100835.19;1804818;79;21908;-76
2021/04/29 08:04:14;;;;;;;9.33;5.60;;;;;;;14.78;42.26;100827.42;1811022;79;21604;-74
2021/04/29 08:06:43;;;;;;;6.73;5.10;;;;;;;14.73;42.78;100830.92;1794279;79;21374;-75
2021/04/29 08:09:10;;;;;;;9.13;5.57;;;;;;;14.65;42.65;100832.06;1790052;77;21439;-75
2021/04/29 08:11:38;;;;;;;8.80;5.50;;;;;;;14.54;42.90;100819.19;1810511;79;21477;-75
2021/04/29 08:14:07;;;;;;;7.70;5.33;;;;;;;14.54;43.33;100821.88;1794985;79;21840;-74
2021/04/29 08:16:36;;;;;;;7.33;5.53;;;;;;;14.64;43.57;100822.37;1809895;79;21792;-76
2021/04/29 08:19:04;;;;;;;8.23;5.70;;;;;;;14.75;42.99;100819.36;1799168;79;21455;-75
2021/04/29 08:21:36;;;;;;;8.53;5.60;;;;;;;14.82;42.86;100815.56;1802428;79;21935;-75
2021/04/29 08:24:05;;;;;;;8.10;5.73;;;;;;;14.85;42.88;100817.15;1793478;79;21529;-74
2021/04/29 08:26:33;;;;;;;9.83;6.60;;;;;;;14.94;43.37;100812.79;1803460;79;22123;-74
2021/04/29 08:29:02;;;;;;;7.00;5.27;;;;;;;15.23;42.92;100812.02;1801422;77;21397;-74
2021/04/29 08:31:31;;;;;;;6.60;4.80;;;;;;;15.36;42.09;100805.19;1805464;79;21513;-74
2021/04/29 08:34:00;;;;;;;7.60;4.97;;;;;;;15.36;42.09;100805.19;1804058;77;21618;-73
2021/04/29 08:36:30;;;;;;;8.43;5.20;;;;;;;15.38;41.32;100807.06;1808180;79;21489;-74
2021/04/29 08:41:44;;;;;;;8.63;5.30;;;;;;;15.37;41.70;100802.78;1804760;79;22904;-74
2021/04/29 08:44:12;;;;;;;8.33;5.63;;;;;;;15.33;41.90;100807.09;1782408;79;21146;-74
2021/04/29 08:46:41;;;;;;;6.77;4.57;;;;;;;15.38;41.71;100797.64;1762429;80;22684;-75
2021/04/29 08:49:10;;;;;;;5.87;4.30;;;;;;;15.45;42.07;100802.16;1793159;79;22099;-74
2021/04/29 08:51:38;;;;;;;9.80;4.37;;;;;;;15.68;41.32;100800.61;1779221;79;21548;-74
2021/04/29 08:54:07;;;;;;;8.07;4.50;;;;;;;15.73;41.27;100787.62;1779245;79;21506;-75
2021/04/29 08:56:35;;;;;;;8.90;5.13;;;;;;;15.74;41.00;100780.63;1777214;80;21645;-74
2021/04/29 08:59:04;;;;;;;5.83;4.10;;;;;;;15.74;41.00;100780.63;1813480;79;21655;-74
2021/04/29 09:01:44;;;;;;;6.17;3.67;;;;;;;15.75;40.96;100785.47;1766282;80;21615;-76
2021/04/29 09:04:17;;;;;;;5.23;3.33;;;;;;;15.79;40.68;100781.10;1775755;79;21700;-74
2021/04/29 09:06:46;;;;;;;5.10;3.27;;;;;;;15.77;40.57;100775.22;1802953;78;21604;-75
2021/04/29 09:09:17;;;;;;;7.47;3.40;;;;;;;15.78;39.74;100772.78;1758792;80;22158;-74
2021/04/29 09:11:54;;;;;;;6.47;3.50;;;;;;;15.78;39.72;100776.27;1795366;79;22281;-73
2021/04/29 09:14:32;;;;;;;6.13;3.43;;;;;;;15.76;39.57;100769.55;1774102;79;21639;-73
2021/04/29 09:17:01;;;;;;;6.93;4.10;;;;;;;15.68;40.10;100754.84;1783107;79;21841;-74
2021/04/29 09:19:35;;;;;;;5.00;3.20;;;;;;;15.69;40.76;100761.81;1803198;79;21785;-75
2021/04/29 09:22:04;;;;;;;5.97;3.77;;;;;;;15.69;40.76;100744.31;1775375;79;21695;-75
2021/04/29 09:24:38;;;;;;;5.83;3.93;;;;;;;15.79;40.45;100760.36;1766001;80;21832;-75
2021/04/29 09:27:17;;;;;;;5.63;3.93;;;;;;;15.89;39.13;100738.72;1767840;80;21708;-74
2021/04/29 09:29:58;;;;;;;6.03;3.77;;;;;;;15.89;39.13;100738.72;1775694;79;21917;-73
2021/04/29 09:32:32;;;;;;;4.73;3.70;;;;;;;15.90;39.97;100743.00;1775829;79;21803;-75
2021/04/29 09:35:00;;;;;;;5.87;4.00;;;;;;;15.90;39.97;100743.00;1775821;79;21870;-74
2021/04/29 09:37:35;;;;;;;6.63;3.70;;;;;;;15.98;39.38;100738.86;1773960;79;22370;-74
2021/04/29 09:40:25;;;;;;;4.97;3.30;;;;;;;16.05;39.21;100729.08;1783213;79;21727;-74
2021/04/29 09:42:55;;;;;;;5.83;3.60;;;;;;;16.05;39.21;100729.08;1769025;80;21891;-73
2021/04/29 09:45:30;;;;;;;5.57;4.00;;;;;;;16.10;39.63;100716.35;1779569;79;22093;-75
2021/04/29 09:48:05;;;;;;;5.43;3.90;;;;;;;16.19;39.07;100723.25;1769103;80;22089;-75
2021/04/29 09:50:41;;;;;;;7.27;3.50;;;;;;;16.25;39.13;100715.88;1749633;80;22394;-77
2021/04/29 09:53:22;;;;;;;4.27;2.40;;;;;;;16.33;39.14;100715.23;1746076;79;22841;-74
2021/04/29 09:55:50;;;;;;;7.33;3.37;;;;;;;16.32;39.24;100713.61;1714860;83;21200;-75
2021/04/29 09:58:23;;;;;;;5.27;3.77;;;;;;;16.35;38.96;100712.52;1723295;81;21870;-75
2021/04/29 10:00:50;;;;;;;7.27;3.40;;;;;;;16.39;39.33;100708.69;1720125;81;21868;-75
2021/04/29 10:03:20;;;;;;;4.30;2.83;;;;;;;16.49;38.97;100702.34;1739318;81;21937;-75
2021/04/29 10:05:53;;;;;;;5.67;2.83;;;;;;;16.61;39.14;100700.77;1747749;82;22023;-76
2021/04/29 10:08:25;;;;;;;6.17;3.50;;;;;;;16.75;37.61;100689.27;1731238;81;21854;-74
2021/04/29 10:10:57;;;;;;;5.13;2.93;;;;;;;16.84;38.20;100695.59;1703544;82;21849;-75
2021/04/29 10:13:30;;;;;;;6.42;2.90;;;;;;;16.94;37.94;100691.37;1728120;81;21104;-73
2021/04/29 10:15:59;;;;;;;5.47;3.13;;;;;;;17.00;37.03;100683.45;1756062;80;21191;-74
2021/04/29 10:18:28;;;;;;;4.93;3.10;;;;;;;17.00;37.35;100680.75;1770860;80;21810;-75
2021/04/29 10:20:59;;;;;;;4.90;2.90;;;;;;;16.98;37.55;100675.39;1770747;80;21906;-75
2021/04/29 10:23:28;;;;;;;4.77;2.70;;;;;;;17.02;37.28;100676.42;1770263;79;21815;-75
2021/04/29 10:26:00;;;;;;;5.33;3.00;;;;;;;17.04;36.94;100671.51;1768342;79;22264;-74
2021/04/29 10:28:41;;;;;;;5.42;3.08;;;;;;;17.04;36.91;100669.61;1768467;80;21922;-74
2021/04/29 10:31:23;;;;;;;5.47;3.30;;;;;;;17.12;37.30;100670.84;1772520;79;21178;-73
2021/04/29 10:33:58;;;;;;;4.43;2.87;;;;;;;17.19;36.88;100665.05;1774249;80;21822;-74
2021/04/29 10:36:44;;;;;;;4.33;2.83;;;;;;;17.23;36.77;100665.48;1785989;79;21375;-73
2021/04/29 10:39:21;;;;;;;5.77;3.33;;;;;;;17.27;37.31;100660.29;1782099;80;21141;-75
2021/04/29 10:42:09;;;;;;;5.00;3.40;;;;;;;17.31;37.24;100649.17;1775137;79;21846;-74
2021/04/29 10:44:41;;;;;;;5.53;3.37;;;;;;;17.31;37.24;100649.17;1773183;80;21197;-76
2021/04/29 10:47:09;;;;;;;6.07;3.30;;;;;;;17.39;37.18;100649.01;1776964;80;21867;-75
2021/04/29 10:49:42;;;;;;;7.40;3.47;;;;;;;17.46;37.50;100646.70;1767537;79;21370;-75
2021/04/29 10:52:07;;;;;;;6.07;3.70;;;;;;;17.58;37.44;100634.85;1768882;79;21714;-74
2021/04/29 10:54:35;;;;;;;7.40;3.93;;;;;;;17.67;36.91;100638.97;1772718;80;21163;-74
2021/04/29 10:57:11;;;;;;;7.20;3.93;;;;;;;17.71;37.36;100644.05;1775829;79;21147;-74
2021/04/29 10:59:50;;;;;;;5.60;3.77;;;;;;;17.74;37.22;100638.03;1773714;80;21115;-74
2021/04/29 11:02:31;;;;;;;5.53;3.97;;;;;;;17.82;37.53;100630.58;1779436;79;22206;-77
2021/04/29 11:04:58;;;;;;;4.87;2.87;;;;;;;17.94;37.11;100634.13;1773736;80;21198;-76
2021/04/29 11:07:29;;;;;;;4.70;2.97;;;;;;;18.01;36.87;100628.53;1771799;80;21147;-74
2021/04/29 11:10:08;;;;;;;5.20;3.40;;;;;;;18.10;36.24;100636.73;1769524;80;21515;-76
2021/04/29 11:12:54;;;;;;;4.87;3.30;;;;;;;18.08;36.12;100619.21;1778420;80;21630;-76
2021/04/29 11:15:36;;;;;;;5.43;3.10;;;;;;;18.01;35.85;100621.78;1772486;79;21364;-74
2021/04/29 11:18:13;;;;;;;4.40;2.77;;;;;;;17.92;35.74;100623.59;1780279;80;21183;-75
2021/04/29 11:20:52;;;;;;;6.07;2.63;;;;;;;17.90;35.87;100624.47;1776253;80;21111;-75
2021/04/29 11:23:28;;;;;;;5.53;2.93;;;;;;;17.97;36.93;100613.25;1772255;79;21255;-77
2021/04/29 11:26:06;;;;;;;6.07;2.73;;;;;;;18.10;36.66;100613.75;1779138;80;21150;-77
2021/04/29 11:28:36;;;;;;;4.93;2.80;;;;;;;18.14;35.97;100617.44;1779192;80;21501;-76
2021/04/29 11:31:04;;;;;;;6.30;2.70;;;;;;;18.16;35.89;100613.06;1734810;81;21213;-76
2021/04/29 11:33:38;;;;;;;4.30;2.83;;;;;;;18.23;36.29;100618.31;1733683;81;21602;-77
2021/04/29 11:39:08;;;;;;;5.07;3.07;;;;;;;18.56;35.50;100608.59;1804817;79;22382;-74
2021/04/29 11:41:36;;;;;;;5.00;3.20;;;;;;;18.60;35.37;100604.71;1758826;80;21177;-75
2021/04/29 11:44:07;;;;;;;5.10;3.73;;;;;;;18.69;35.56;100601.48;1711366;81;21217;-75
2021/04/29 11:46:36;;;;;;;5.57;3.30;;;;;;;18.74;34.88;100599.48;1787149;79;21152;-76
2021/04/29 11:49:08;;;;;;;5.65;3.70;;;;;;;18.72;34.15;100596.30;1778684;79;21191;-74
2021/04/29 11:51:48;;;;;;;4.53;3.10;;;;;;;18.65;34.68;100597.80;1782586;78;21600;-74
2021/04/29 11:54:18;;;;;;;4.87;3.13;;;;;;;18.57;35.09;100587.75;1738085;82;21199;-76
2021/04/29 11:56:48;;;;;;;3.80;2.87;;;;;;;18.54;35.42;100580.25;1729087;82;21683;-74
2021/04/29 11:59:17;;;;;;;5.27;3.27;;;;;;;18.57;35.59;100577.72;1745396;81;21199;-75
2021/04/29 12:01:56;;;;;;;5.13;2.93;;;;;;;18.60;35.40;100579.02;1740415;81;21216;-73
2021/04/29 12:04:24;;;;;;;4.87;3.40;;;;;;;18.56;35.50;100575.30;1754973;79;21235;-74
2021/04/29 12:06:59;;;;;;;6.00;3.00;;;;;;;18.54;35.34;100569.42;1742338;81;21180;-74
2021/04/29 12:09:28;;;;;;;4.00;2.80;;;;;;;18.62;35.81;100568.66;1759025;81;21504;-72
2021/04/29 12:12:18;;;;;;;4.73;2.73;;;;;;;18.73;35.39;100565.42;1734934;81;21220;-74
2021/04/29 12:14:54;;;;;;;5.50;2.83;;;;;;;18.83;34.55;100564.35;1754987;81;21136;-72
2021/04/29 12:17:23;;;;;;;5.13;3.13;;;;;;;18.89;34.82;100553.64;1737647;80;21209;-74
2021/04/29 12:19:53;;;;;;;4.80;2.83;;;;;;;18.96;34.26;100555.89;1710167;83;21172;-74
2021/04/29 12:22:24;;;;;;;5.03;2.60;;;;;;;18.95;33.77;100555.09;1757642;81;21981;-74
2021/04/29 12:24:52;;;;;;;5.95;2.98;;;;;;;18.92;33.42;100547.59;1752116;79;21179;-73
2021/04/29 12:27:22;;;;;;;4.90;2.73;;;;;;;18.92;33.98;100539.48;1757358;81;21133;-75
2021/04/29 12:30:03;;;;;;;4.43;2.83;;;;;;;18.95;33.96;100534.80;1754069;79;21187;-74
2021/04/29 12:32:44;;;;;;;6.45;2.80;;;;;;;18.98;33.79;100531.99;1751754;79;21994;-73
2021/04/29 12:35:28;;;;;;;5.15;2.65;;;;;;;19.02;34.18;100534.34;1754245;81;21572;-74
2021/04/29 12:38:11;;;;;;;5.23;2.80;;;;;;;19.18;34.11;100523.31;1799648;77;22203;-75
2021/04/29 12:40:39;;;;;;;5.23;2.70;;;;;;;19.19;33.90;100525.45;1775079;80;21160;-74
2021/04/29 12:43:21;;;;;;;4.17;2.73;;;;;;;19.21;33.98;100515.88;1780015;78;21796;-78
2021/04/29 12:45:52;;;;;;;6.97;2.67;;;;;;;19.21;33.83;100515.88;1774794;80;21199;-75